createdAt,value
2018-05-24T00:02:02.278Z,2.50
2018-05-24T00:04:29.856Z,7.30
2018-05-24T00:06:57.460Z,3.60
2018-05-24T00:09:25.851Z,5.20
2018-05-24T00:11:53.422Z,7.90
2018-05-24T00:14:21.007Z,5.03
2018-05-24T00:16:48.616Z,2.80
2018-05-24T00:19:16.215Z,2.17
2018-05-24T00:21:43.807Z,3.50
2018-05-24T00:24:11.417Z,4.93
2018-05-24T00:26:39.016Z,3.73
2018-05-24T00:29:06.617Z,2.60
2018-05-24T00:31:34.179Z,5.50
2018-05-24T00:34:02.547Z,5.53
2018-05-24T00:36:30.248Z,4.50
2018-05-24T00:38:57.825Z,3.50
2018-05-24T00:41:25.409Z,4.47
2018-05-24T00:43:53.030Z,3.97
2018-05-24T00:46:20.611Z,2.73
2018-05-24T00:48:48.193Z,4.40
2018-05-24T00:51:15.764Z,2.53
2018-05-24T00:53:43.402Z,2.27
2018-05-24T00:56:11.624Z,2.37
2018-05-24T00:58:39.214Z,3.13
2018-05-24T01:01:06.889Z,3.30
2018-05-24T01:03:34.452Z,2.20
2018-05-24T01:06:02.023Z,2.37
2018-05-24T01:08:29.737Z,2.23
2018-05-24T01:10:58.098Z,1.90
2018-05-24T01:13:25.715Z,3.33
2018-05-24T01:15:53.386Z,2.30
2018-05-24T01:18:20.902Z,3.43
2018-05-24T01:20:49.237Z,2.13
2018-05-24T01:23:16.811Z,2.43
2018-05-24T01:25:44.399Z,2.50
2018-05-24T01:28:12.762Z,6.33
2018-05-24T01:30:40.348Z,3.10
2018-05-24T01:33:07.964Z,2.53
2018-05-24T01:35:35.560Z,3.10
2018-05-24T01:38:03.170Z,2.57
2018-05-24T01:40:30.769Z,2.33
2018-05-24T01:42:58.355Z,2.57
2018-05-24T01:45:25.954Z,2.50
2018-05-24T01:47:53.533Z,2.40
2018-05-24T01:50:21.103Z,2.43
2018-05-24T01:52:48.701Z,2.53
2018-05-24T01:55:16.321Z,3.90
2018-05-24T01:57:43.906Z,4.87
2018-05-24T02:00:11.496Z,4.40
2018-05-24T02:02:39.095Z,3.13
2018-05-24T02:05:06.680Z,2.53
2018-05-24T02:07:34.270Z,2.23
2018-05-24T02:10:02.609Z,4.43
2018-05-24T02:12:30.205Z,2.73
2018-05-24T02:14:57.798Z,3.13
2018-05-24T02:17:25.358Z,2.20
2018-05-24T02:19:53.015Z,2.40
2018-05-24T02:22:20.607Z,4.77
2018-05-24T02:24:48.202Z,3.50
2018-05-24T02:27:15.860Z,2.80
2018-05-24T02:29:43.472Z,2.63
2018-05-24T02:32:11.100Z,4.00
2018-05-24T02:34:39.464Z,2.47
2018-05-24T02:37:07.068Z,2.30
2018-05-24T02:39:34.643Z,3.50
2018-05-24T02:42:02.243Z,3.63
2018-05-24T02:44:29.832Z,2.50
2018-05-24T02:46:58.281Z,3.57
2018-05-24T02:49:26.585Z,2.93
2018-05-24T02:51:55.000Z,3.00
2018-05-24T02:54:22.569Z,2.37
2018-05-24T02:56:50.153Z,2.43
2018-05-24T02:59:17.808Z,2.70
2018-05-24T03:01:45.480Z,3.67
2018-05-24T03:04:13.784Z,2.20
2018-05-24T03:06:41.394Z,2.50
2018-05-24T03:09:09.417Z,2.70
2018-05-24T03:11:37.092Z,4.20
2018-05-24T03:14:05.442Z,2.40
2018-05-24T03:16:33.063Z,3.30
2018-05-24T03:19:00.665Z,2.83
2018-05-24T03:21:28.249Z,2.83
2018-05-24T03:23:55.829Z,2.87
2018-05-24T03:26:23.400Z,4.00
2018-05-24T03:28:50.963Z,2.70
2018-05-24T03:31:18.579Z,2.53
2018-05-24T03:33:46.174Z,2.37
2018-05-24T03:36:14.530Z,3.17
2018-05-24T03:38:42.117Z,2.57
2018-05-24T03:41:10.467Z,2.40
2018-05-24T03:43:38.071Z,2.40
2018-05-24T03:46:05.680Z,2.70
2018-05-24T03:48:33.255Z,2.93
2018-05-24T03:51:00.841Z,2.67
2018-05-24T03:53:28.457Z,3.17
2018-05-24T03:55:56.023Z,2.47
2018-05-24T03:58:23.688Z,3.63
2018-05-24T04:01:03.097Z,7.50
2018-05-24T04:03:42.497Z,2.60
2018-05-24T04:06:10.845Z,2.50
2018-05-24T04:08:38.424Z,2.70
2018-05-24T04:11:05.999Z,2.73
2018-05-24T04:13:33.586Z,4.37
2018-05-24T04:16:01.176Z,2.87
2018-05-24T04:18:28.762Z,2.80
2018-05-24T04:20:56.355Z,3.97
2018-05-24T04:23:23.940Z,4.77
2018-05-24T04:25:51.525Z,3.10
2018-05-24T04:28:19.104Z,2.67
2018-05-24T04:30:51.381Z,3.17
2018-05-24T04:33:19.203Z,3.27
2018-05-24T04:35:46.798Z,3.00
2018-05-24T04:38:14.381Z,7.03
2018-05-24T04:40:42.725Z,2.83
2018-05-24T04:43:10.321Z,4.10
2018-05-24T04:45:38.661Z,3.83
2018-05-24T04:48:06.226Z,2.70
2018-05-24T04:50:33.833Z,3.50
2018-05-24T04:53:02.193Z,2.77
2018-05-24T04:55:29.786Z,4.70
2018-05-24T04:57:57.376Z,5.60
2018-05-24T05:00:25.293Z,2.60
2018-05-24T05:02:57.946Z,3.23
2018-05-24T05:05:26.565Z,4.13
2018-05-24T05:07:54.907Z,2.90
2018-05-24T05:10:23.115Z,3.87
2018-05-24T05:12:50.709Z,3.80
2018-05-24T05:15:18.297Z,3.00
2018-05-24T05:17:45.942Z,3.27
2018-05-24T05:20:13.517Z,3.27
2018-05-24T05:22:41.099Z,2.80
2018-05-24T05:25:08.780Z,3.40
2018-05-24T05:27:36.333Z,3.00
2018-05-24T05:30:03.946Z,3.20
2018-05-24T05:32:31.524Z,4.23
2018-05-24T05:34:59.102Z,3.67
2018-05-24T05:37:26.687Z,7.83
2018-05-24T05:39:54.279Z,4.27
2018-05-24T05:42:21.855Z,3.53
2018-05-24T05:44:49.617Z,5.93
2018-05-24T05:47:17.176Z,3.70
2018-05-24T05:49:44.757Z,3.77
2018-05-24T05:52:12.343Z,4.67
2018-05-24T05:54:39.916Z,4.27
2018-05-24T05:57:07.493Z,2.87
2018-05-24T05:59:35.859Z,3.60
2018-05-24T06:02:03.448Z,3.40
2018-05-24T06:04:31.034Z,4.80
2018-05-24T06:06:58.648Z,3.47
2018-05-24T06:09:26.233Z,3.80
2018-05-24T06:11:53.809Z,3.57
2018-05-24T06:14:21.410Z,3.67
2018-05-24T06:16:49.127Z,3.83
2018-05-24T06:19:16.737Z,4.40
2018-05-24T06:21:44.399Z,6.43
2018-05-24T06:24:11.957Z,3.30
2018-05-24T06:26:40.365Z,3.70
2018-05-24T06:29:08.712Z,3.70
2018-05-24T06:31:36.301Z,3.63
2018-05-24T06:34:03.899Z,6.33
2018-05-24T06:36:31.478Z,4.13
2018-05-24T06:38:59.074Z,4.03
2018-05-24T06:41:26.702Z,3.87
2018-05-24T06:43:54.291Z,3.50
2018-05-24T06:46:21.969Z,3.60
2018-05-24T06:48:49.506Z,3.60
2018-05-24T06:51:17.132Z,4.33
2018-05-24T06:53:44.821Z,4.87
2018-05-24T06:56:12.341Z,4.10
2018-05-24T06:58:40.132Z,3.73
2018-05-24T07:01:07.616Z,4.33
2018-05-24T07:03:35.173Z,3.73
2018-05-24T07:06:02.841Z,4.63
2018-05-24T07:08:30.489Z,5.53
2018-05-24T07:10:58.141Z,4.53
2018-05-24T07:13:25.704Z,5.40
2018-05-24T07:15:53.268Z,4.53
2018-05-24T07:18:20.854Z,4.00
2018-05-24T07:20:48.442Z,4.70
2018-05-24T07:23:16.821Z,6.70
2018-05-24T07:25:45.173Z,4.50
2018-05-24T07:28:12.757Z,7.27
2018-05-24T07:30:40.349Z,4.67
2018-05-24T07:33:07.921Z,4.60
2018-05-24T07:35:35.508Z,7.83
2018-05-24T07:38:03.084Z,6.53
2018-05-24T07:40:30.669Z,7.23
2018-05-24T07:42:58.280Z,7.20
2018-05-24T07:45:25.894Z,4.50
2018-05-24T07:47:53.461Z,9.13
2018-05-24T07:50:21.075Z,4.50
2018-05-24T07:52:48.688Z,4.27
2018-05-24T07:55:16.272Z,6.83
2018-05-24T07:57:43.880Z,4.80
2018-05-24T08:00:11.442Z,8.20
2018-05-24T08:02:39.024Z,6.67
2018-05-24T08:05:06.601Z,9.23
2018-05-24T08:07:34.220Z,4.87
2018-05-24T08:10:01.805Z,6.07
2018-05-24T08:12:29.365Z,6.90
2018-05-24T08:14:57.725Z,6.13
2018-05-24T08:17:25.416Z,6.00
2018-05-24T08:19:53.019Z,8.83
2018-05-24T08:22:20.596Z,6.63
2018-05-24T08:24:48.196Z,6.97
2018-05-24T08:27:16.522Z,6.40
2018-05-24T08:29:44.149Z,9.43
2018-05-24T08:32:11.719Z,6.07
2018-05-24T08:34:39.302Z,5.60
2018-05-24T08:37:06.893Z,5.47
2018-05-24T08:39:34.476Z,6.33
2018-05-24T08:42:02.829Z,7.60
2018-05-24T08:44:30.408Z,6.83
2018-05-24T08:46:58.028Z,5.47
2018-05-24T08:49:26.386Z,5.83
2018-05-24T08:51:53.962Z,4.93
2018-05-24T08:54:21.575Z,6.33
2018-05-24T08:56:49.914Z,8.73
2018-05-24T08:59:17.529Z,6.00
2018-05-24T09:01:45.882Z,7.73
2018-05-24T09:04:13.525Z,6.37
2018-05-24T09:06:41.087Z,7.20
2018-05-24T09:09:08.771Z,6.43
2018-05-24T09:11:36.301Z,6.37
2018-05-24T09:14:03.889Z,5.37
2018-05-24T09:16:31.521Z,5.60
2018-05-24T09:18:59.099Z,6.32
2018-05-24T09:21:26.689Z,6.47
2018-05-24T09:23:54.285Z,6.53
2018-05-24T09:26:21.849Z,8.65
2018-05-24T09:28:49.427Z,5.32
2018-05-24T09:31:17.003Z,5.72
2018-05-24T09:33:44.732Z,7.53
2018-05-24T09:36:12.397Z,5.03
2018-05-24T09:38:39.959Z,5.27
2018-05-24T09:41:07.552Z,6.57
2018-05-24T09:43:35.139Z,7.93
2018-05-24T09:46:02.763Z,6.77
2018-05-24T09:48:30.368Z,6.20
2018-05-24T09:50:58.706Z,5.57
2018-05-24T09:53:26.272Z,5.80
2018-05-24T09:55:53.865Z,4.67
2018-05-24T09:58:21.457Z,5.70
2018-05-24T10:00:49.815Z,5.53
2018-05-24T10:03:18.163Z,5.13
2018-05-24T10:05:45.727Z,5.27
2018-05-24T10:08:13.308Z,6.97
2018-05-24T10:10:40.895Z,5.07
2018-05-24T10:13:08.525Z,7.57
2018-05-24T10:15:36.117Z,5.43
2018-05-24T10:18:03.838Z,5.37
2018-05-24T10:20:31.411Z,6.40
2018-05-24T10:22:58.994Z,6.30
2018-05-24T10:25:26.596Z,7.90
2018-05-24T10:27:54.264Z,7.50
2018-05-24T10:30:22.864Z,6.67
2018-05-24T10:32:50.439Z,9.20
2018-05-24T10:35:18.022Z,5.97
2018-05-24T10:37:46.360Z,8.30
2018-05-24T10:40:13.944Z,6.60
2018-05-24T10:42:41.509Z,8.90
2018-05-24T10:45:09.117Z,7.12
2018-05-24T10:47:36.730Z,4.72
2018-05-24T10:50:04.347Z,6.82
2018-05-24T10:52:32.066Z,5.10
2018-05-24T10:54:59.755Z,6.80
2018-05-24T10:57:27.494Z,4.37
2018-05-24T10:59:56.002Z,5.15
2018-05-24T11:02:23.659Z,5.60
2018-05-24T11:04:51.315Z,6.65
2018-05-24T11:07:18.981Z,7.62
2018-05-24T11:09:46.752Z,5.32
2018-05-24T11:12:14.395Z,5.60
2018-05-24T11:14:42.829Z,5.20
2018-05-24T11:17:10.532Z,5.20
2018-05-24T11:19:38.941Z,6.30
2018-05-24T11:22:06.589Z,8.25
2018-05-24T11:24:35.001Z,8.60
2018-05-24T11:27:02.867Z,5.45
2018-05-24T11:29:30.504Z,4.75
2018-05-24T11:31:58.219Z,6.05
2018-05-24T11:34:25.827Z,8.40
2018-05-24T11:36:54.239Z,6.15
2018-05-24T11:39:21.876Z,6.87
2018-05-24T11:41:49.512Z,9.57
2018-05-24T11:44:17.171Z,6.00
2018-05-24T11:46:44.799Z,4.70
2018-05-24T11:49:12.451Z,5.07
2018-05-24T11:51:40.134Z,4.87
2018-05-24T11:54:07.746Z,5.07
2018-05-24T11:56:35.326Z,7.32
2018-05-24T11:59:03.306Z,6.43
2018-05-24T12:01:37.084Z,6.18
2018-05-24T12:06:42.550Z,5.37
2018-05-24T12:09:11.036Z,6.55
2018-05-24T12:11:38.813Z,4.20
2018-05-24T12:14:06.405Z,6.43
2018-05-24T12:16:33.983Z,4.78
2018-05-24T12:19:01.551Z,4.53
2018-05-24T12:21:29.145Z,7.50
2018-05-24T12:23:57.056Z,4.82
2018-05-24T12:26:24.857Z,6.87
2018-05-24T12:28:53.572Z,6.07
2018-05-24T12:31:21.954Z,5.47
2018-05-24T12:33:50.439Z,6.62
2018-05-24T12:36:18.064Z,7.05
2018-05-24T12:38:45.649Z,8.15
2018-05-24T12:41:14.018Z,7.03
2018-05-24T12:43:41.610Z,7.80
2018-05-24T12:46:09.210Z,7.37
2018-05-24T12:48:40.687Z,9.05
2018-05-24T12:51:12.377Z,8.33
2018-05-24T12:53:40.222Z,6.83
2018-05-24T12:56:07.782Z,7.07
2018-05-24T12:58:36.179Z,6.97
2018-05-24T13:01:04.204Z,7.83
2018-05-24T13:03:31.800Z,7.70
2018-05-24T13:06:02.880Z,7.43
2018-05-24T13:08:30.436Z,7.23
2018-05-24T13:10:58.354Z,8.10
2018-05-24T13:13:25.933Z,8.03
2018-05-24T13:15:55.149Z,7.53
2018-05-24T13:18:22.754Z,8.40
2018-05-24T13:20:50.723Z,8.00
2018-05-24T13:23:18.356Z,8.83
2018-05-24T13:25:45.951Z,7.63
2018-05-24T13:28:14.150Z,9.40
2018-05-24T13:30:41.731Z,8.47
2018-05-24T13:33:09.293Z,7.97
2018-05-24T13:35:37.622Z,8.40
2018-05-24T13:38:05.222Z,8.47
2018-05-24T13:40:33.631Z,7.67
2018-05-24T13:43:01.182Z,9.48
2018-05-24T13:45:28.760Z,10.00
2018-05-24T13:47:56.355Z,10.73
2018-05-24T13:50:23.955Z,7.82
2018-05-24T13:52:53.724Z,7.93
2018-05-24T13:55:21.356Z,7.60
2018-05-24T13:57:49.068Z,8.27
2018-05-24T14:00:16.664Z,7.90
2018-05-24T14:02:44.289Z,9.93
2018-05-24T14:05:11.853Z,8.57
2018-05-24T14:07:39.460Z,10.02
2018-05-24T14:10:07.113Z,8.48
2018-05-24T14:12:35.464Z,10.15
2018-05-24T14:15:03.530Z,12.98
2018-05-24T14:17:31.168Z,8.95
2018-05-24T14:19:58.751Z,11.07
2018-05-24T14:22:26.332Z,11.23
2018-05-24T14:24:54.036Z,10.25
2018-05-24T14:27:22.026Z,9.63
2018-05-24T14:29:49.600Z,9.88
2018-05-24T14:32:17.241Z,10.63
2018-05-24T14:34:44.892Z,9.77
2018-05-24T14:37:12.514Z,11.27
2018-05-24T14:39:40.104Z,11.83
2018-05-24T14:42:07.748Z,9.50
2018-05-24T14:44:35.347Z,10.60
2018-05-24T14:47:02.936Z,10.43
2018-05-24T14:49:30.520Z,10.73
2018-05-24T14:51:58.859Z,9.20
2018-05-24T14:54:26.440Z,9.03
2018-05-24T14:56:55.024Z,9.60
2018-05-24T14:59:22.642Z,9.83
2018-05-24T15:01:50.197Z,9.77
2018-05-24T15:04:17.772Z,9.97
2018-05-24T15:06:45.366Z,9.45
2018-05-24T15:09:12.952Z,10.52
2018-05-24T15:11:40.541Z,10.05
2018-05-24T15:14:08.115Z,9.85
2018-05-24T15:16:35.734Z,8.75
2018-05-24T15:19:03.515Z,9.20
2018-05-24T15:21:31.856Z,8.60
2018-05-24T15:23:59.441Z,10.30
2018-05-24T15:26:27.043Z,10.07
2018-05-24T15:28:54.776Z,9.25
2018-05-24T15:31:22.374Z,10.03
2018-05-24T15:33:49.953Z,9.30
2018-05-24T15:36:17.585Z,10.40
2018-05-24T15:38:45.148Z,9.23
2018-05-24T15:41:12.747Z,9.38
2018-05-24T15:43:40.367Z,10.13
2018-05-24T15:46:07.984Z,9.03
2018-05-24T15:48:35.753Z,8.30
2018-05-24T15:51:03.479Z,10.23
2018-05-24T15:53:31.045Z,10.20
2018-05-24T15:55:58.629Z,11.38
2018-05-24T15:58:26.224Z,10.20
2018-05-24T16:00:54.576Z,9.77
2018-05-24T16:03:22.170Z,9.10
2018-05-24T16:05:49.776Z,11.40
2018-05-24T16:08:17.372Z,10.80
2018-05-24T16:10:44.963Z,10.07
2018-05-24T16:13:12.574Z,9.90
2018-05-24T16:15:40.171Z,10.48
2018-05-24T16:18:07.996Z,10.07
2018-05-24T16:20:35.594Z,10.80
2018-05-24T16:23:03.168Z,10.05
2018-05-24T16:25:30.752Z,11.38
2018-05-24T16:27:58.350Z,10.88
2018-05-24T16:30:25.970Z,11.32
2018-05-24T16:32:53.548Z,10.45
2018-05-24T16:35:21.180Z,10.07
2018-05-24T16:37:48.793Z,11.43
2018-05-24T16:40:16.406Z,9.25
2018-05-24T16:42:44.001Z,11.02
2018-05-24T16:45:11.603Z,8.98
2018-05-24T16:47:39.326Z,9.52
2018-05-24T16:50:06.894Z,9.77
2018-05-24T16:52:34.498Z,8.68
2018-05-24T16:55:02.080Z,8.18
2018-05-24T16:57:29.823Z,9.98
2018-05-24T16:59:58.163Z,9.57
2018-05-24T17:02:25.742Z,9.43
2018-05-24T17:04:53.997Z,9.68
2018-05-24T17:07:21.574Z,11.23
2018-05-24T17:09:49.165Z,10.02
2018-05-24T17:12:16.802Z,10.88
2018-05-24T17:14:44.374Z,11.88
2018-05-24T17:17:11.979Z,11.48
2018-05-24T17:19:39.592Z,10.75
2018-05-24T17:22:07.198Z,10.68
2018-05-24T17:24:34.803Z,11.38
2018-05-24T17:27:02.409Z,12.63
2018-05-24T17:29:30.765Z,11.95
2018-05-24T17:31:58.362Z,12.05
2018-05-24T17:34:25.966Z,12.32
2018-05-24T17:36:53.630Z,11.82
2018-05-24T17:39:21.227Z,13.05
2018-05-24T17:41:49.592Z,10.98
2018-05-24T17:44:17.186Z,13.57
2018-05-24T17:46:44.798Z,13.02
2018-05-24T17:49:12.403Z,12.70
2018-05-24T17:51:39.978Z,11.70
2018-05-24T17:54:07.657Z,10.15
2018-05-24T17:56:35.245Z,10.90
2018-05-24T17:59:02.828Z,13.27
2018-05-24T18:01:30.407Z,12.60
2018-05-24T18:03:57.993Z,13.57
2018-05-24T18:06:25.596Z,12.93
2018-05-24T18:08:55.111Z,13.07
2018-05-24T18:11:22.702Z,13.23
2018-05-24T18:13:50.279Z,12.60
2018-05-24T18:16:17.876Z,13.63
2018-05-24T18:18:45.535Z,13.43
2018-05-24T18:21:13.275Z,12.77
2018-05-24T18:23:40.845Z,13.33
2018-05-24T18:26:08.443Z,13.87
2018-05-24T18:28:36.053Z,13.97
2018-05-24T18:31:03.630Z,13.23
2018-05-24T18:33:31.234Z,13.43
2018-05-24T18:35:58.883Z,12.57
2018-05-24T18:38:27.245Z,12.23
2018-05-24T18:40:54.876Z,14.93
2018-05-24T18:43:22.447Z,13.13
2018-05-24T18:45:50.029Z,12.17
2018-05-24T18:48:17.614Z,12.70
2018-05-24T18:50:45.198Z,13.27
2018-05-24T18:53:13.562Z,12.90
2018-05-24T18:55:41.151Z,14.07
2018-05-24T18:58:08.721Z,13.90
2018-05-24T19:00:36.325Z,14.63
2018-05-24T19:03:03.944Z,12.17
2018-05-24T19:05:31.515Z,16.93
2018-05-24T19:07:59.209Z,16.03
2018-05-24T19:10:26.801Z,16.07
2018-05-24T19:12:54.731Z,15.40
2018-05-24T19:15:22.321Z,16.53
2018-05-24T19:17:49.941Z,14.67
2018-05-24T19:20:17.533Z,15.37
2018-05-24T19:22:45.134Z,14.90
2018-05-24T19:25:12.730Z,14.07
2018-05-24T19:27:40.334Z,14.47
2018-05-24T19:30:07.920Z,13.90
2018-05-24T19:32:36.276Z,16.53
2018-05-24T19:35:03.869Z,16.27
2018-05-24T19:37:32.414Z,17.73
2018-05-24T19:39:59.995Z,14.10
2018-05-24T19:42:27.600Z,14.53
2018-05-24T19:44:55.207Z,15.50
2018-05-24T19:47:22.819Z,15.50
2018-05-24T19:49:50.407Z,14.27
2018-05-24T19:52:18.100Z,14.33
2018-05-24T19:54:46.435Z,15.23
2018-05-24T19:57:14.000Z,13.93
2018-05-24T19:59:41.558Z,13.30
2018-05-24T20:02:09.154Z,15.33
2018-05-24T20:04:37.523Z,14.40
2018-05-24T20:07:05.117Z,14.93
2018-05-24T20:09:32.723Z,14.33
2018-05-24T20:12:00.326Z,14.77
2018-05-24T20:14:28.680Z,14.87
2018-05-24T20:16:56.410Z,16.07
2018-05-24T20:19:24.028Z,14.83
2018-05-24T20:21:51.596Z,16.20
2018-05-24T20:24:19.960Z,14.60
2018-05-24T20:26:47.553Z,14.80
2018-05-24T20:29:15.180Z,16.87
2018-05-24T20:31:42.773Z,16.20
2018-05-24T20:34:10.362Z,15.23
2018-05-24T20:36:37.931Z,16.97
2018-05-24T20:39:06.499Z,16.27
2018-05-24T20:41:34.101Z,15.87
2018-05-24T20:44:01.684Z,16.33
2018-05-24T20:46:29.283Z,16.00
2018-05-24T20:48:56.854Z,16.57
2018-05-24T20:51:24.469Z,15.53
2018-05-24T20:53:52.826Z,15.10
2018-05-24T20:56:20.470Z,15.57
2018-05-24T20:58:48.076Z,18.33
2018-05-24T21:01:16.433Z,17.67
2018-05-24T21:03:44.035Z,17.60
2018-05-24T21:06:11.627Z,17.30
2018-05-24T21:08:39.233Z,16.07
2018-05-24T21:11:06.853Z,18.03
2018-05-24T21:13:34.451Z,16.93
2018-05-24T21:16:02.054Z,16.10
2018-05-24T21:18:29.817Z,15.70
2018-05-24T21:20:57.569Z,14.50
2018-05-24T21:23:25.254Z,17.70
2018-05-24T21:25:52.855Z,16.77
2018-05-24T21:28:20.609Z,16.17
2018-05-24T21:30:48.219Z,17.73
2018-05-24T21:33:15.822Z,17.73
2018-05-24T21:35:43.398Z,19.83
2018-05-24T21:38:11.014Z,18.30
2018-05-24T21:40:38.605Z,16.47
2018-05-24T21:43:06.453Z,15.97
2018-05-24T21:45:34.044Z,16.50
2018-05-24T21:48:01.670Z,17.67
2018-05-24T21:50:29.279Z,16.50
2018-05-24T21:52:56.889Z,15.57
2018-05-24T21:55:24.469Z,16.80
2018-05-24T21:57:52.908Z,16.83
2018-05-24T22:00:21.278Z,16.73
2018-05-24T22:02:48.850Z,15.60
2018-05-24T22:05:16.477Z,14.40
2018-05-24T22:07:44.061Z,15.87
2018-05-24T22:10:11.650Z,14.57
2018-05-24T22:12:39.287Z,15.67
2018-05-24T22:15:06.863Z,17.63
2018-05-24T22:17:34.448Z,16.67
2018-05-24T22:20:02.024Z,15.70
2018-05-24T22:22:29.641Z,14.30
2018-05-24T22:24:58.007Z,15.20
2018-05-24T22:27:25.733Z,13.93
2018-05-24T22:29:53.319Z,14.47
2018-05-24T22:32:20.915Z,14.60
2018-05-24T22:34:48.507Z,11.90
2018-05-24T22:37:16.288Z,13.23
2018-05-24T22:39:43.886Z,11.60
2018-05-24T22:42:11.501Z,12.80
2018-05-24T22:44:39.109Z,10.60
2018-05-24T22:47:06.712Z,10.03
2018-05-24T22:49:34.304Z,9.63
2018-05-24T22:52:01.948Z,10.57
2018-05-24T22:54:29.536Z,11.33
2018-05-24T22:56:57.108Z,11.77
2018-05-24T22:59:24.716Z,11.93
2018-05-24T23:01:52.297Z,12.03
2018-05-24T23:04:19.916Z,12.17
2018-05-24T23:06:47.550Z,11.00
2018-05-24T23:09:15.130Z,11.13
2018-05-24T23:11:43.683Z,11.67
2018-05-24T23:14:11.258Z,10.33
2018-05-24T23:16:38.882Z,11.10
2018-05-24T23:19:06.475Z,11.20
2018-05-24T23:21:34.108Z,11.63
2018-05-24T23:24:01.734Z,10.77
2018-05-24T23:26:29.314Z,11.47
2018-05-24T23:28:56.914Z,10.80
2018-05-24T23:31:24.916Z,11.07
2018-05-24T23:33:52.509Z,12.23
2018-05-24T23:36:20.113Z,12.97
2018-05-24T23:38:47.714Z,12.37
2018-05-24T23:41:15.273Z,14.33
2018-05-24T23:43:42.864Z,14.23
2018-05-24T23:46:10.449Z,13.73
2018-05-24T23:48:38.053Z,13.80
2018-05-24T23:51:06.411Z,13.67
2018-05-24T23:53:34.021Z,13.77
2018-05-24T23:56:01.633Z,15.27
2018-05-24T23:58:29.256Z,15.23
